sensor_id;sensor_type;location;lat;lon;timestamp;P1;durP1;ratioP1;P2;durP2;ratioP2
5521;SDS011;2783;48.730;8.006;2022-08-21T00:01:18;5.28;;;2.15;;
5521;SDS011;2783;48.730;8.006;2022-08-21T00:03:45;5.13;;;1.90;;
5521;SDS011;2783;48.730;8.006;2022-08-21T00:06:12;6.10;;;2.10;;
5521;SDS011;2783;48.730;8.006;2022-08-21T00:08:37;4.47;;;2.00;;
5521;SDS011;2783;48.730;8.006;2022-08-21T00:11:03;8.80;;;2.13;;
5521;SDS011;2783;48.730;8.006;2022-08-21T00:13:29;4.22;;;1.88;;
5521;SDS011;2783;48.730;8.006;2022-08-21T00:15:54;5.47;;;1.85;;
5521;SDS011;2783;48.730;8.006;2022-08-21T00:18:20;3.58;;;1.92;;
5521;SDS011;2783;48.730;8.006;2022-08-21T00:20:46;3.90;;;1.80;;
5521;SDS011;2783;48.730;8.006;2022-08-21T00:23:12;4.18;;;1.98;;
5521;SDS011;2783;48.730;8.006;2022-08-21T00:25:38;3.58;;;1.58;;
5521;SDS011;2783;48.730;8.006;2022-08-21T00:28:04;4.05;;;1.85;;
5521;SDS011;2783;48.730;8.006;2022-08-21T00:30:31;3.60;;;1.70;;
5521;SDS011;2783;48.730;8.006;2022-08-21T00:32:57;3.92;;;1.90;;
5521;SDS011;2783;48.730;8.006;2022-08-21T00:35:27;5.65;;;2.00;;
5521;SDS011;2783;48.730;8.006;2022-08-21T00:37:55;4.35;;;1.90;;
5521;SDS011;2783;48.730;8.006;2022-08-21T00:40:26;3.97;;;1.98;;
5521;SDS011;2783;48.730;8.006;2022-08-21T00:42:54;5.45;;;2.13;;
5521;SDS011;2783;48.730;8.006;2022-08-21T00:45:23;4.45;;;2.25;;
5521;SDS011;2783;48.730;8.006;2022-08-21T00:47:50;3.63;;;2.00;;
5521;SDS011;2783;48.730;8.006;2022-08-21T00:50:16;6.03;;;2.25;;
5521;SDS011;2783;48.730;8.006;2022-08-21T00:52:42;3.03;;;1.80;;
5521;SDS011;2783;48.730;8.006;2022-08-21T00:55:09;4.25;;;2.05;;
5521;SDS011;2783;48.730;8.006;2022-08-21T00:57:47;3.30;;;1.70;;
5521;SDS011;2783;48.730;8.006;2022-08-21T01:00:16;3.05;;;1.80;;
5521;SDS011;2783;48.730;8.006;2022-08-21T01:02:46;4.20;;;1.83;;
5521;SDS011;2783;48.730;8.006;2022-08-21T01:05:11;2.83;;;1.95;;
5521;SDS011;2783;48.730;8.006;2022-08-21T01:07:37;6.75;;;2.08;;
5521;SDS011;2783;48.730;8.006;2022-08-21T01:10:04;3.45;;;1.77;;
5521;SDS011;2783;48.730;8.006;2022-08-21T01:12:30;3.78;;;1.95;;
5521;SDS011;2783;48.730;8.006;2022-08-21T01:14:56;3.65;;;1.90;;
5521;SDS011;2783;48.730;8.006;2022-08-21T01:17:22;4.32;;;2.05;;
5521;SDS011;2783;48.730;8.006;2022-08-21T01:19:48;6.65;;;1.98;;
5521;SDS011;2783;48.730;8.006;2022-08-21T01:22:13;4.25;;;2.17;;
5521;SDS011;2783;48.730;8.006;2022-08-21T01:24:39;3.13;;;1.85;;
5521;SDS011;2783;48.730;8.006;2022-08-21T01:27:04;4.97;;;2.15;;
5521;SDS011;2783;48.730;8.006;2022-08-21T01:29:32;4.15;;;1.90;;
5521;SDS011;2783;48.730;8.006;2022-08-21T01:32:06;6.10;;;2.38;;
5521;SDS011;2783;48.730;8.006;2022-08-21T01:34:35;3.92;;;2.13;;
5521;SDS011;2783;48.730;8.006;2022-08-21T01:37:03;8.07;;;2.65;;
5521;SDS011;2783;48.730;8.006;2022-08-21T01:39:28;4.25;;;2.20;;
5521;SDS011;2783;48.730;8.006;2022-08-21T01:41:54;5.15;;;2.28;;
5521;SDS011;2783;48.730;8.006;2022-08-21T01:44:21;5.47;;;2.20;;
5521;SDS011;2783;48.730;8.006;2022-08-21T01:46:46;8.52;;;2.40;;
5521;SDS011;2783;48.730;8.006;2022-08-21T01:49:13;4.32;;;2.00;;
5521;SDS011;2783;48.730;8.006;2022-08-21T01:51:38;3.92;;;2.13;;
5521;SDS011;2783;48.730;8.006;2022-08-21T01:54:04;6.95;;;2.38;;
5521;SDS011;2783;48.730;8.006;2022-08-21T01:56:34;5.35;;;1.88;;
5521;SDS011;2783;48.730;8.006;2022-08-21T01:59:01;4.28;;;2.03;;
5521;SDS011;2783;48.730;8.006;2022-08-21T02:01:27;5.45;;;2.28;;
5521;SDS011;2783;48.730;8.006;2022-08-21T02:03:52;4.20;;;2.58;;
5521;SDS011;2783;48.730;8.006;2022-08-21T02:06:17;3.72;;;2.03;;
5521;SDS011;2783;48.730;8.006;2022-08-21T02:08:43;5.32;;;2.33;;
5521;SDS011;2783;48.730;8.006;2022-08-21T02:11:09;4.07;;;2.42;;
5521;SDS011;2783;48.730;8.006;2022-08-21T02:13:34;3.72;;;1.83;;
5521;SDS011;2783;48.730;8.006;2022-08-21T02:15:59;3.42;;;2.17;;
5521;SDS011;2783;48.730;8.006;2022-08-21T02:18:25;4.47;;;2.17;;
5521;SDS011;2783;48.730;8.006;2022-08-21T02:20:50;4.90;;;2.25;;
5521;SDS011;2783;48.730;8.006;2022-08-21T02:23:16;4.57;;;2.35;;
5521;SDS011;2783;48.730;8.006;2022-08-21T02:25:42;4.00;;;2.00;;
5521;SDS011;2783;48.730;8.006;2022-08-21T02:28:11;4.35;;;2.17;;
5521;SDS011;2783;48.730;8.006;2022-08-21T02:30:41;5.97;;;2.35;;
5521;SDS011;2783;48.730;8.006;2022-08-21T02:33:08;6.05;;;2.65;;
5521;SDS011;2783;48.730;8.006;2022-08-21T02:35:37;3.50;;;2.20;;
5521;SDS011;2783;48.730;8.006;2022-08-21T02:38:04;4.10;;;2.22;;
5521;SDS011;2783;48.730;8.006;2022-08-21T02:40:33;4.78;;;2.28;;
5521;SDS011;2783;48.730;8.006;2022-08-21T02:43:03;4.20;;;2.05;;
5521;SDS011;2783;48.730;8.006;2022-08-21T02:45:30;6.13;;;2.45;;
5521;SDS011;2783;48.730;8.006;2022-08-21T02:47:57;8.88;;;2.35;;
5521;SDS011;2783;48.730;8.006;2022-08-21T02:50:28;4.57;;;2.40;;
5521;SDS011;2783;48.730;8.006;2022-08-21T02:52:56;3.75;;;2.13;;
5521;SDS011;2783;48.730;8.006;2022-08-21T02:55:23;3.25;;;1.83;;
5521;SDS011;2783;48.730;8.006;2022-08-21T02:57:51;4.88;;;2.15;;
5521;SDS011;2783;48.730;8.006;2022-08-21T03:00:18;3.72;;;2.20;;
5521;SDS011;2783;48.730;8.006;2022-08-21T03:02:45;4.32;;;2.20;;
5521;SDS011;2783;48.730;8.006;2022-08-21T03:05:11;4.03;;;2.28;;
5521;SDS011;2783;48.730;8.006;2022-08-21T03:07:38;5.97;;;2.65;;
5521;SDS011;2783;48.730;8.006;2022-08-21T03:10:05;5.47;;;2.45;;
5521;SDS011;2783;48.730;8.006;2022-08-21T03:12:31;5.45;;;2.42;;
5521;SDS011;2783;48.730;8.006;2022-08-21T03:14:56;5.72;;;2.15;;
5521;SDS011;2783;48.730;8.006;2022-08-21T03:17:23;7.35;;;3.03;;
5521;SDS011;2783;48.730;8.006;2022-08-21T03:19:49;6.55;;;2.40;;
5521;SDS011;2783;48.730;8.006;2022-08-21T03:22:14;8.27;;;2.53;;
5521;SDS011;2783;48.730;8.006;2022-08-21T03:24:40;5.97;;;2.65;;
5521;SDS011;2783;48.730;8.006;2022-08-21T03:27:05;8.32;;;2.42;;
5521;SDS011;2783;48.730;8.006;2022-08-21T03:29:31;4.70;;;3.03;;
5521;SDS011;2783;48.730;8.006;2022-08-21T03:31:56;4.25;;;2.08;;
5521;SDS011;2783;48.730;8.006;2022-08-21T03:34:21;4.63;;;2.72;;
5521;SDS011;2783;48.730;8.006;2022-08-21T03:36:47;5.07;;;2.70;;
5521;SDS011;2783;48.730;8.006;2022-08-21T03:39:14;4.90;;;2.30;;
5521;SDS011;2783;48.730;8.006;2022-08-21T03:41:40;5.50;;;2.15;;
5521;SDS011;2783;48.730;8.006;2022-08-21T03:44:06;4.63;;;2.10;;
5521;SDS011;2783;48.730;8.006;2022-08-21T03:46:32;5.38;;;2.20;;
5521;SDS011;2783;48.730;8.006;2022-08-21T03:48:57;4.85;;;2.63;;
5521;SDS011;2783;48.730;8.006;2022-08-21T03:51:23;4.38;;;2.50;;
5521;SDS011;2783;48.730;8.006;2022-08-21T03:53:48;7.10;;;2.75;;
5521;SDS011;2783;48.730;8.006;2022-08-21T03:56:14;4.43;;;2.38;;
5521;SDS011;2783;48.730;8.006;2022-08-21T03:58:41;9.38;;;2.50;;
5521;SDS011;2783;48.730;8.006;2022-08-21T04:01:07;3.92;;;2.08;;
5521;SDS011;2783;48.730;8.006;2022-08-21T04:03:34;3.97;;;2.42;;
5521;SDS011;2783;48.730;8.006;2022-08-21T04:06:02;5.40;;;2.45;;
5521;SDS011;2783;48.730;8.006;2022-08-21T04:08:27;6.47;;;2.40;;
5521;SDS011;2783;48.730;8.006;2022-08-21T04:10:54;5.43;;;2.83;;
5521;SDS011;2783;48.730;8.006;2022-08-21T04:13:21;4.88;;;2.53;;
5521;SDS011;2783;48.730;8.006;2022-08-21T04:15:47;3.88;;;2.10;;
5521;SDS011;2783;48.730;8.006;2022-08-21T04:18:13;6.43;;;2.45;;
5521;SDS011;2783;48.730;8.006;2022-08-21T04:20:39;7.07;;;2.80;;
5521;SDS011;2783;48.730;8.006;2022-08-21T04:23:07;8.40;;;2.58;;
5521;SDS011;2783;48.730;8.006;2022-08-21T04:25:32;4.43;;;2.33;;
5521;SDS011;2783;48.730;8.006;2022-08-21T04:27:58;5.97;;;2.35;;
5521;SDS011;2783;48.730;8.006;2022-08-21T04:30:24;4.43;;;2.17;;
5521;SDS011;2783;48.730;8.006;2022-08-21T04:32:50;4.60;;;2.28;;
5521;SDS011;2783;48.730;8.006;2022-08-21T04:35:17;6.53;;;2.53;;
5521;SDS011;2783;48.730;8.006;2022-08-21T04:37:44;3.28;;;2.03;;
5521;SDS011;2783;48.730;8.006;2022-08-21T04:40:11;7.72;;;3.30;;
5521;SDS011;2783;48.730;8.006;2022-08-21T04:42:42;5.90;;;2.97;;
5521;SDS011;2783;48.730;8.006;2022-08-21T04:47:42;4.60;;;2.35;;
5521;SDS011;2783;48.730;8.006;2022-08-21T04:50:08;5.57;;;2.38;;
5521;SDS011;2783;48.730;8.006;2022-08-21T04:52:33;6.68;;;2.75;;
5521;SDS011;2783;48.730;8.006;2022-08-21T04:54:59;5.72;;;2.25;;
5521;SDS011;2783;48.730;8.006;2022-08-21T04:57:25;4.70;;;3.05;;
5521;SDS011;2783;48.730;8.006;2022-08-21T04:59:51;11.25;;;2.97;;
5521;SDS011;2783;48.730;8.006;2022-08-21T05:02:17;5.03;;;2.50;;
5521;SDS011;2783;48.730;8.006;2022-08-21T05:04:49;11.93;;;2.80;;
5521;SDS011;2783;48.730;8.006;2022-08-21T05:07:22;5.03;;;2.53;;
5521;SDS011;2783;48.730;8.006;2022-08-21T05:09:52;4.72;;;2.25;;
5521;SDS011;2783;48.730;8.006;2022-08-21T05:12:18;6.45;;;2.60;;
5521;SDS011;2783;48.730;8.006;2022-08-21T05:14:44;6.75;;;3.33;;
5521;SDS011;2783;48.730;8.006;2022-08-21T05:17:09;4.15;;;2.45;;
5521;SDS011;2783;48.730;8.006;2022-08-21T05:19:35;5.05;;;2.70;;
5521;SDS011;2783;48.730;8.006;2022-08-21T05:22:01;4.15;;;2.28;;
5521;SDS011;2783;48.730;8.006;2022-08-21T05:24:27;5.88;;;2.63;;
5521;SDS011;2783;48.730;8.006;2022-08-21T05:26:53;7.72;;;3.20;;
5521;SDS011;2783;48.730;8.006;2022-08-21T05:29:18;4.25;;;2.53;;
5521;SDS011;2783;48.730;8.006;2022-08-21T05:31:44;8.27;;;2.58;;
5521;SDS011;2783;48.730;8.006;2022-08-21T05:34:10;6.57;;;2.78;;
5521;SDS011;2783;48.730;8.006;2022-08-21T05:36:35;17.55;;;3.22;;
5521;SDS011;2783;48.730;8.006;2022-08-21T05:39:02;13.40;;;3.15;;
5521;SDS011;2783;48.730;8.006;2022-08-21T05:41:27;6.60;;;2.30;;
5521;SDS011;2783;48.730;8.006;2022-08-21T05:43:53;4.65;;;2.55;;
5521;SDS011;2783;48.730;8.006;2022-08-21T05:46:18;5.78;;;2.17;;
5521;SDS011;2783;48.730;8.006;2022-08-21T05:48:44;6.65;;;2.60;;
5521;SDS011;2783;48.730;8.006;2022-08-21T05:51:10;6.97;;;2.70;;
5521;SDS011;2783;48.730;8.006;2022-08-21T05:53:38;10.30;;;2.75;;
5521;SDS011;2783;48.730;8.006;2022-08-21T05:56:04;6.68;;;3.28;;
5521;SDS011;2783;48.730;8.006;2022-08-21T05:58:30;7.57;;;2.45;;
5521;SDS011;2783;48.730;8.006;2022-08-21T06:00:57;3.63;;;2.03;;
5521;SDS011;2783;48.730;8.006;2022-08-21T06:03:26;6.82;;;2.80;;
5521;SDS011;2783;48.730;8.006;2022-08-21T06:05:53;4.47;;;2.53;;
5521;SDS011;2783;48.730;8.006;2022-08-21T06:08:20;8.90;;;2.35;;
5521;SDS011;2783;48.730;8.006;2022-08-21T06:10:47;5.30;;;2.67;;
5521;SDS011;2783;48.730;8.006;2022-08-21T06:13:14;7.80;;;2.58;;
5521;SDS011;2783;48.730;8.006;2022-08-21T06:15:41;5.18;;;2.63;;
5521;SDS011;2783;48.730;8.006;2022-08-21T06:18:07;5.82;;;2.20;;
5521;SDS011;2783;48.730;8.006;2022-08-21T06:20:32;10.35;;;2.70;;
5521;SDS011;2783;48.730;8.006;2022-08-21T06:22:58;5.30;;;2.38;;
5521;SDS011;2783;48.730;8.006;2022-08-21T06:25:24;4.25;;;1.95;;
5521;SDS011;2783;48.730;8.006;2022-08-21T06:27:49;7.20;;;2.33;;
5521;SDS011;2783;48.730;8.006;2022-08-21T06:30:15;4.22;;;2.40;;
5521;SDS011;2783;48.730;8.006;2022-08-21T06:32:40;9.25;;;2.28;;
5521;SDS011;2783;48.730;8.006;2022-08-21T06:35:06;7.28;;;2.25;;
5521;SDS011;2783;48.730;8.006;2022-08-21T06:37:32;5.32;;;2.05;;
5521;SDS011;2783;48.730;8.006;2022-08-21T06:39:58;3.95;;;1.90;;
5521;SDS011;2783;48.730;8.006;2022-08-21T06:42:23;4.97;;;2.10;;
5521;SDS011;2783;48.730;8.006;2022-08-21T06:44:49;4.90;;;1.95;;
5521;SDS011;2783;48.730;8.006;2022-08-21T06:47:15;8.95;;;2.35;;
5521;SDS011;2783;48.730;8.006;2022-08-21T06:49:40;5.40;;;1.75;;
5521;SDS011;2783;48.730;8.006;2022-08-21T06:52:12;4.75;;;2.13;;
5521;SDS011;2783;48.730;8.006;2022-08-21T06:54:38;2.97;;;1.80;;
5521;SDS011;2783;48.730;8.006;2022-08-21T06:57:04;4.05;;;1.80;;
5521;SDS011;2783;48.730;8.006;2022-08-21T06:59:30;5.35;;;2.15;;
5521;SDS011;2783;48.730;8.006;2022-08-21T07:01:57;3.95;;;1.80;;
5521;SDS011;2783;48.730;8.006;2022-08-21T07:04:23;6.20;;;1.75;;
5521;SDS011;2783;48.730;8.006;2022-08-21T07:06:48;3.22;;;1.58;;
5521;SDS011;2783;48.730;8.006;2022-08-21T07:09:13;15.23;;;2.33;;
5521;SDS011;2783;48.730;8.006;2022-08-21T07:11:39;2.67;;;1.60;;
5521;SDS011;2783;48.730;8.006;2022-08-21T07:14:06;5.03;;;1.60;;
5521;SDS011;2783;48.730;8.006;2022-08-21T07:16:31;3.65;;;1.70;;
5521;SDS011;2783;48.730;8.006;2022-08-21T07:18:56;3.75;;;1.85;;
5521;SDS011;2783;48.730;8.006;2022-08-21T07:21:22;6.65;;;1.90;;
5521;SDS011;2783;48.730;8.006;2022-08-21T07:23:49;2.70;;;1.42;;
5521;SDS011;2783;48.730;8.006;2022-08-21T07:26:17;5.97;;;1.70;;
5521;SDS011;2783;48.730;8.006;2022-08-21T07:28:46;7.32;;;1.85;;
5521;SDS011;2783;48.730;8.006;2022-08-21T07:31:13;2.60;;;1.27;;
5521;SDS011;2783;48.730;8.006;2022-08-21T07:33:39;3.78;;;1.52;;
5521;SDS011;2783;48.730;8.006;2022-08-21T07:36:06;5.05;;;1.85;;
5521;SDS011;2783;48.730;8.006;2022-08-21T07:38:32;3.28;;;1.45;;
5521;SDS011;2783;48.730;8.006;2022-08-21T07:40:57;3.72;;;1.40;;
5521;SDS011;2783;48.730;8.006;2022-08-21T07:43:25;4.82;;;1.60;;
5521;SDS011;2783;48.730;8.006;2022-08-21T07:45:50;5.53;;;1.50;;
5521;SDS011;2783;48.730;8.006;2022-08-21T07:48:16;4.95;;;1.50;;
5521;SDS011;2783;48.730;8.006;2022-08-21T07:50:42;3.25;;;1.67;;
5521;SDS011;2783;48.730;8.006;2022-08-21T07:53:08;5.82;;;1.60;;
5521;SDS011;2783;48.730;8.006;2022-08-21T07:55:34;3.58;;;1.45;;
5521;SDS011;2783;48.730;8.006;2022-08-21T07:57:59;4.63;;;1.80;;
5521;SDS011;2783;48.730;8.006;2022-08-21T08:00:26;7.00;;;1.70;;
5521;SDS011;2783;48.730;8.006;2022-08-21T08:02:53;3.72;;;1.40;;
5521;SDS011;2783;48.730;8.006;2022-08-21T08:05:20;5.03;;;1.40;;
5521;SDS011;2783;48.730;8.006;2022-08-21T08:07:48;5.43;;;1.80;;
5521;SDS011;2783;48.730;8.006;2022-08-21T08:10:14;2.78;;;1.38;;
5521;SDS011;2783;48.730;8.006;2022-08-21T08:12:41;2.80;;;1.50;;
5521;SDS011;2783;48.730;8.006;2022-08-21T08:15:08;3.58;;;1.38;;
5521;SDS011;2783;48.730;8.006;2022-08-21T08:17:39;7.77;;;1.50;;
5521;SDS011;2783;48.730;8.006;2022-08-21T08:20:05;8.05;;;1.70;;
5521;SDS011;2783;48.730;8.006;2022-08-21T08:22:31;5.35;;;1.77;;
5521;SDS011;2783;48.730;8.006;2022-08-21T08:25:00;6.18;;;2.10;;
5521;SDS011;2783;48.730;8.006;2022-08-21T08:27:26;3.00;;;1.30;;
5521;SDS011;2783;48.730;8.006;2022-08-21T08:29:52;9.07;;;1.67;;
5521;SDS011;2783;48.730;8.006;2022-08-21T08:32:18;5.35;;;1.30;;
5521;SDS011;2783;48.730;8.006;2022-08-21T08:34:44;3.65;;;1.60;;
5521;SDS011;2783;48.730;8.006;2022-08-21T08:37:09;5.43;;;1.75;;
5521;SDS011;2783;48.730;8.006;2022-08-21T08:39:35;7.55;;;1.65;;
5521;SDS011;2783;48.730;8.006;2022-08-21T08:42:06;4.85;;;1.77;;
5521;SDS011;2783;48.730;8.006;2022-08-21T08:44:39;5.97;;;1.65;;
5521;SDS011;2783;48.730;8.006;2022-08-21T08:47:10;4.93;;;1.80;;
5521;SDS011;2783;48.730;8.006;2022-08-21T08:52:35;4.65;;;1.63;;
5521;SDS011;2783;48.730;8.006;2022-08-21T08:57:33;5.40;;;1.77;;
5521;SDS011;2783;48.730;8.006;2022-08-21T09:00:03;5.05;;;1.58;;
5521;SDS011;2783;48.730;8.006;2022-08-21T09:02:31;4.07;;;1.77;;
5521;SDS011;2783;48.730;8.006;2022-08-21T09:04:58;3.80;;;1.65;;
5521;SDS011;2783;48.730;8.006;2022-08-21T09:10:16;7.10;;;1.60;;
5521;SDS011;2783;48.730;8.006;2022-08-21T09:12:55;4.30;;;1.50;;
5521;SDS011;2783;48.730;8.006;2022-08-21T09:21:07;3.63;;;1.30;;
5521;SDS011;2783;48.730;8.006;2022-08-21T09:23:47;3.67;;;1.70;;
5521;SDS011;2783;48.730;8.006;2022-08-21T09:26:21;4.78;;;1.27;;
5521;SDS011;2783;48.730;8.006;2022-08-21T09:28:59;3.33;;;1.27;;
5521;SDS011;2783;48.730;8.006;2022-08-21T09:31:32;3.45;;;1.55;;
5521;SDS011;2783;48.730;8.006;2022-08-21T09:34:07;4.85;;;1.50;;
5521;SDS011;2783;48.730;8.006;2022-08-21T09:36:42;8.20;;;1.75;;
5521;SDS011;2783;48.730;8.006;2022-08-21T09:39:11;4.22;;;1.45;;
5521;SDS011;2783;48.730;8.006;2022-08-21T09:41:39;3.83;;;1.60;;
5521;SDS011;2783;48.730;8.006;2022-08-21T09:44:06;6.43;;;1.70;;
5521;SDS011;2783;48.730;8.006;2022-08-21T09:46:33;7.97;;;2.13;;
5521;SDS011;2783;48.730;8.006;2022-08-21T09:48:59;4.60;;;1.48;;
5521;SDS011;2783;48.730;8.006;2022-08-21T09:51:34;4.22;;;1.80;;
5521;SDS011;2783;48.730;8.006;2022-08-21T09:56:37;4.38;;;1.42;;
5521;SDS011;2783;48.730;8.006;2022-08-21T09:59:33;4.18;;;1.30;;
5521;SDS011;2783;48.730;8.006;2022-08-21T10:02:00;3.72;;;1.38;;
5521;SDS011;2783;48.730;8.006;2022-08-21T10:04:40;5.28;;;1.80;;
5521;SDS011;2783;48.730;8.006;2022-08-21T10:07:11;5.00;;;1.65;;
5521;SDS011;2783;48.730;8.006;2022-08-21T10:09:39;3.78;;;1.50;;
5521;SDS011;2783;48.730;8.006;2022-08-21T10:12:09;7.03;;;1.70;;
5521;SDS011;2783;48.730;8.006;2022-08-21T10:25:48;4.38;;;1.33;;
5521;SDS011;2783;48.730;8.006;2022-08-21T10:31:16;4.07;;;1.50;;
5521;SDS011;2783;48.730;8.006;2022-08-21T10:36:52;8.40;;;1.40;;
5521;SDS011;2783;48.730;8.006;2022-08-21T10:39:33;1.90;;;0.90;;
5521;SDS011;2783;48.730;8.006;2022-08-21T10:42:10;4.13;;;1.23;;
5521;SDS011;2783;48.730;8.006;2022-08-21T10:47:40;3.85;;;1.30;;
5521;SDS011;2783;48.730;8.006;2022-08-21T10:50:47;5.57;;;1.65;;
5521;SDS011;2783;48.730;8.006;2022-08-21T11:01:24;3.15;;;0.80;;
5521;SDS011;2783;48.730;8.006;2022-08-21T11:03:57;4.63;;;1.30;;
5521;SDS011;2783;48.730;8.006;2022-08-21T11:06:34;2.90;;;0.93;;
5521;SDS011;2783;48.730;8.006;2022-08-21T11:09:08;4.13;;;1.70;;
5521;SDS011;2783;48.730;8.006;2022-08-21T11:11:36;2.80;;;0.93;;
5521;SDS011;2783;48.730;8.006;2022-08-21T11:14:26;5.55;;;0.95;;
5521;SDS011;2783;48.730;8.006;2022-08-21T11:17:09;3.53;;;1.23;;
5521;SDS011;2783;48.730;8.006;2022-08-21T11:24:39;2.95;;;1.15;;
5521;SDS011;2783;48.730;8.006;2022-08-21T11:27:15;1.73;;;0.75;;
5521;SDS011;2783;48.730;8.006;2022-08-21T11:29:56;5.15;;;1.30;;
5521;SDS011;2783;48.730;8.006;2022-08-21T11:35:25;3.53;;;1.00;;
5521;SDS011;2783;48.730;8.006;2022-08-21T11:43:40;4.40;;;1.17;;
5521;SDS011;2783;48.730;8.006;2022-08-21T11:46:29;3.83;;;0.93;;
5521;SDS011;2783;48.730;8.006;2022-08-21T11:51:48;2.85;;;1.02;;
5521;SDS011;2783;48.730;8.006;2022-08-21T11:54:28;4.40;;;1.42;;
5521;SDS011;2783;48.730;8.006;2022-08-21T11:57:02;4.68;;;1.45;;
5521;SDS011;2783;48.730;8.006;2022-08-21T12:00:08;4.70;;;1.30;;
5521;SDS011;2783;48.730;8.006;2022-08-21T12:02:35;6.18;;;1.35;;
5521;SDS011;2783;48.730;8.006;2022-08-21T12:05:09;3.67;;;1.00;;
5521;SDS011;2783;48.730;8.006;2022-08-21T12:07:47;3.25;;;0.95;;
5521;SDS011;2783;48.730;8.006;2022-08-21T12:10:14;2.50;;;1.02;;
5521;SDS011;2783;48.730;8.006;2022-08-21T12:12:43;3.72;;;1.10;;
5521;SDS011;2783;48.730;8.006;2022-08-21T12:17:50;3.95;;;1.00;;
5521;SDS011;2783;48.730;8.006;2022-08-21T12:25:39;3.03;;;1.30;;
5521;SDS011;2783;48.730;8.006;2022-08-21T12:28:08;2.78;;;1.00;;
5521;SDS011;2783;48.730;8.006;2022-08-21T12:30:37;2.50;;;1.10;;
5521;SDS011;2783;48.730;8.006;2022-08-21T12:35:42;2.50;;;0.88;;
5521;SDS011;2783;48.730;8.006;2022-08-21T12:38:26;2.65;;;1.00;;
5521;SDS011;2783;48.730;8.006;2022-08-21T12:41:00;4.05;;;0.80;;
5521;SDS011;2783;48.730;8.006;2022-08-21T12:46:06;2.50;;;0.95;;
5521;SDS011;2783;48.730;8.006;2022-08-21T12:48:54;2.75;;;1.00;;
5521;SDS011;2783;48.730;8.006;2022-08-21T12:51:22;4.68;;;1.23;;
5521;SDS011;2783;48.730;8.006;2022-08-21T12:53:52;3.97;;;1.00;;
5521;SDS011;2783;48.730;8.006;2022-08-21T12:56:29;4.90;;;1.30;;
5521;SDS011;2783;48.730;8.006;2022-08-21T12:59:05;4.25;;;1.10;;
5521;SDS011;2783;48.730;8.006;2022-08-21T13:01:43;3.50;;;1.00;;
5521;SDS011;2783;48.730;8.006;2022-08-21T13:04:15;3.83;;;1.10;;
5521;SDS011;2783;48.730;8.006;2022-08-21T13:06:45;2.67;;;0.82;;
5521;SDS011;2783;48.730;8.006;2022-08-21T13:09:16;6.32;;;1.48;;
5521;SDS011;2783;48.730;8.006;2022-08-21T13:11:47;3.55;;;1.00;;
5521;SDS011;2783;48.730;8.006;2022-08-21T13:14:24;1.95;;;0.93;;
5521;SDS011;2783;48.730;8.006;2022-08-21T13:16:54;3.30;;;1.00;;
5521;SDS011;2783;48.730;8.006;2022-08-21T13:19:20;3.03;;;0.85;;
5521;SDS011;2783;48.730;8.006;2022-08-21T13:21:47;3.03;;;1.20;;
5521;SDS011;2783;48.730;8.006;2022-08-21T13:24:26;3.60;;;1.27;;
5521;SDS011;2783;48.730;8.006;2022-08-21T13:26:54;4.13;;;1.10;;
5521;SDS011;2783;48.730;8.006;2022-08-21T13:29:21;5.78;;;1.30;;
5521;SDS011;2783;48.730;8.006;2022-08-21T13:31:53;3.65;;;0.98;;
5521;SDS011;2783;48.730;8.006;2022-08-21T13:34:22;5.22;;;1.00;;
5521;SDS011;2783;48.730;8.006;2022-08-21T13:36:54;4.38;;;1.10;;
5521;SDS011;2783;48.730;8.006;2022-08-21T13:39:24;3.40;;;1.10;;
5521;SDS011;2783;48.730;8.006;2022-08-21T13:41:51;2.83;;;1.00;;
5521;SDS011;2783;48.730;8.006;2022-08-21T13:44:23;3.20;;;0.90;;
5521;SDS011;2783;48.730;8.006;2022-08-21T13:47:03;3.50;;;1.02;;
5521;SDS011;2783;48.730;8.006;2022-08-21T13:49:31;3.35;;;1.38;;
5521;SDS011;2783;48.730;8.006;2022-08-21T13:51:59;3.47;;;1.02;;
5521;SDS011;2783;48.730;8.006;2022-08-21T13:54:27;3.05;;;1.20;;
5521;SDS011;2783;48.730;8.006;2022-08-21T13:56:58;3.55;;;1.15;;
5521;SDS011;2783;48.730;8.006;2022-08-21T13:59:31;2.65;;;0.95;;
5521;SDS011;2783;48.730;8.006;2022-08-21T14:02:42;4.45;;;1.30;;
5521;SDS011;2783;48.730;8.006;2022-08-21T14:04:58;3.50;;;1.10;;
5521;SDS011;2783;48.730;8.006;2022-08-21T14:07:28;3.00;;;1.05;;
5521;SDS011;2783;48.730;8.006;2022-08-21T14:10:00;3.78;;;1.33;;
5521;SDS011;2783;48.730;8.006;2022-08-21T14:12:29;3.35;;;1.13;;
5521;SDS011;2783;48.730;8.006;2022-08-21T14:15:03;4.55;;;1.17;;
5521;SDS011;2783;48.730;8.006;2022-08-21T14:17:34;4.28;;;1.10;;
5521;SDS011;2783;48.730;8.006;2022-08-21T14:20:02;3.63;;;1.10;;
5521;SDS011;2783;48.730;8.006;2022-08-21T14:22:38;3.10;;;1.17;;
5521;SDS011;2783;48.730;8.006;2022-08-21T14:27:44;2.42;;;1.00;;
5521;SDS011;2783;48.730;8.006;2022-08-21T14:30:32;1.83;;;0.95;;
5521;SDS011;2783;48.730;8.006;2022-08-21T14:32:59;4.68;;;1.23;;
5521;SDS011;2783;48.730;8.006;2022-08-21T14:35:25;3.45;;;1.30;;
5521;SDS011;2783;48.730;8.006;2022-08-21T14:37:51;3.75;;;1.08;;
5521;SDS011;2783;48.730;8.006;2022-08-21T14:40:17;2.83;;;1.17;;
5521;SDS011;2783;48.730;8.006;2022-08-21T14:42:44;2.63;;;1.00;;
5521;SDS011;2783;48.730;8.006;2022-08-21T14:47:48;2.63;;;1.10;;
5521;SDS011;2783;48.730;8.006;2022-08-21T14:50:14;2.90;;;0.90;;
5521;SDS011;2783;48.730;8.006;2022-08-21T14:52:40;2.50;;;1.15;;
5521;SDS011;2783;48.730;8.006;2022-08-21T14:55:06;3.05;;;1.02;;
5521;SDS011;2783;48.730;8.006;2022-08-21T14:57:39;1.95;;;0.80;;
5521;SDS011;2783;48.730;8.006;2022-08-21T15:00:10;3.53;;;0.90;;
5521;SDS011;2783;48.730;8.006;2022-08-21T15:02:37;1.67;;;1.00;;
5521;SDS011;2783;48.730;8.006;2022-08-21T15:05:02;5.72;;;1.30;;
5521;SDS011;2783;48.730;8.006;2022-08-21T15:07:29;3.65;;;2.05;;
5521;SDS011;2783;48.730;8.006;2022-08-21T15:09:54;2.92;;;1.20;;
5521;SDS011;2783;48.730;8.006;2022-08-21T15:12:21;2.83;;;1.10;;
5521;SDS011;2783;48.730;8.006;2022-08-21T15:14:47;2.70;;;1.05;;
5521;SDS011;2783;48.730;8.006;2022-08-21T15:17:12;5.13;;;0.98;;
5521;SDS011;2783;48.730;8.006;2022-08-21T15:19:38;3.35;;;1.15;;
5521;SDS011;2783;48.730;8.006;2022-08-21T15:22:04;2.00;;;1.00;;
5521;SDS011;2783;48.730;8.006;2022-08-21T15:24:30;2.63;;;0.88;;
5521;SDS011;2783;48.730;8.006;2022-08-21T15:26:56;1.88;;;0.90;;
5521;SDS011;2783;48.730;8.006;2022-08-21T15:29:25;4.13;;;1.10;;
5521;SDS011;2783;48.730;8.006;2022-08-21T15:31:52;3.78;;;1.00;;
5521;SDS011;2783;48.730;8.006;2022-08-21T15:34:20;2.00;;;1.00;;
5521;SDS011;2783;48.730;8.006;2022-08-21T15:36:46;2.03;;;1.10;;
5521;SDS011;2783;48.730;8.006;2022-08-21T15:39:11;2.22;;;1.23;;
5521;SDS011;2783;48.730;8.006;2022-08-21T15:41:37;3.00;;;1.10;;
5521;SDS011;2783;48.730;8.006;2022-08-21T15:44:02;3.22;;;1.10;;
5521;SDS011;2783;48.730;8.006;2022-08-21T15:46:28;2.85;;;1.05;;
5521;SDS011;2783;48.730;8.006;2022-08-21T15:48:53;4.97;;;1.40;;
5521;SDS011;2783;48.730;8.006;2022-08-21T15:51:19;5.28;;;1.40;;
5521;SDS011;2783;48.730;8.006;2022-08-21T15:53:45;4.15;;;1.05;;
5521;SDS011;2783;48.730;8.006;2022-08-21T15:56:28;4.20;;;1.08;;
5521;SDS011;2783;48.730;8.006;2022-08-21T15:59:00;2.50;;;1.00;;
5521;SDS011;2783;48.730;8.006;2022-08-21T16:01:29;6.70;;;1.10;;
5521;SDS011;2783;48.730;8.006;2022-08-21T16:03:54;2.45;;;1.02;;
5521;SDS011;2783;48.730;8.006;2022-08-21T16:06:20;3.42;;;1.40;;
5521;SDS011;2783;48.730;8.006;2022-08-21T16:08:47;4.20;;;1.20;;
5521;SDS011;2783;48.730;8.006;2022-08-21T16:11:13;5.30;;;1.20;;
5521;SDS011;2783;48.730;8.006;2022-08-21T16:13:40;2.97;;;0.93;;
5521;SDS011;2783;48.730;8.006;2022-08-21T16:16:08;2.67;;;1.25;;
5521;SDS011;2783;48.730;8.006;2022-08-21T16:18:35;1.85;;;0.95;;
5521;SDS011;2783;48.730;8.006;2022-08-21T16:21:01;5.68;;;1.10;;
5521;SDS011;2783;48.730;8.006;2022-08-21T16:23:27;3.90;;;1.25;;
5521;SDS011;2783;48.730;8.006;2022-08-21T16:25:52;3.92;;;1.08;;
5521;SDS011;2783;48.730;8.006;2022-08-21T16:28:18;13.80;;;1.58;;
5521;SDS011;2783;48.730;8.006;2022-08-21T16:30:46;6.57;;;1.60;;
5521;SDS011;2783;48.730;8.006;2022-08-21T16:33:32;28.40;;;2.30;;
5521;SDS011;2783;48.730;8.006;2022-08-21T16:36:18;3.70;;;1.23;;
5521;SDS011;2783;48.730;8.006;2022-08-21T16:38:44;3.92;;;1.10;;
5521;SDS011;2783;48.730;8.006;2022-08-21T16:41:12;2.53;;;1.02;;
5521;SDS011;2783;48.730;8.006;2022-08-21T16:43:41;3.58;;;1.20;;
5521;SDS011;2783;48.730;8.006;2022-08-21T16:46:08;4.18;;;1.63;;